Time;durP1;ratioP1;P1;durP2;ratioP2;P2;SDS_P1;SDS_P2;PMS_P1;PMS_P2;Temp;Humidity;BMP_temperature;BMP_pressure;BME280_temperature;BME280_humidity;BME280_pressure;Samples;Min_cycle;Max_cycle;Signal;HPM_P1;HPM_P2
2023/10/14 00:00:47;;;;;;;19.27;17.60;;;13.60;91.90;;;;;;5114171;28;20184;-91
2023/10/14 00:06:00;;;;;;;19.17;17.30;;;13.50;92.30;;;;;;5114761;28;20197;-90
2023/10/14 00:08:28;;;;;;;20.70;18.77;;;13.50;92.30;;;;;;5112895;28;20166;-91
2023/10/14 00:10:54;;;;;;;18.55;16.85;;;13.50;92.40;;;;;;5112929;28;20185;-91
2023/10/14 00:13:19;;;;;;;20.23;17.40;;;13.50;92.40;;;;;;5112881;28;20170;-91
2023/10/14 00:15:45;;;;;;;19.77;17.80;;;13.50;92.60;;;;;;5113043;28;20254;-90
2023/10/14 00:18:13;;;;;;;21.80;18.83;;;13.60;92.60;;;;;;5113051;28;20174;-90
2023/10/14 00:20:39;;;;;;;20.37;18.40;;;13.60;92.60;;;;;;5113766;28;20189;-91
2023/10/14 00:23:04;;;;;;;25.90;18.73;;;13.60;92.70;;;;;;5114067;28;20256;-89
2023/10/14 00:25:33;;;;;;;21.47;19.23;;;13.60;92.70;;;;;;5112682;28;20327;-91
2023/10/14 00:28:01;;;;;;;26.47;20.50;;;13.60;92.80;;;;;;5113914;28;20162;-90
2023/10/14 00:30:31;;;;;;;22.47;18.57;;;13.50;92.90;;;;;;5113075;28;20201;-92
2023/10/14 00:32:57;;;;;;;21.43;19.07;;;13.50;93.00;;;;;;5112785;28;20170;-91
2023/10/14 00:35:24;;;;;;;20.30;18.37;;;13.50;93.10;;;;;;5114219;28;20201;-91
2023/10/14 00:37:52;;;;;;;31.07;18.90;;;13.60;93.20;;;;;;5112930;28;20649;-91
2023/10/14 00:40:24;;;;;;;27.57;18.93;;;13.60;93.20;;;;;;5112458;28;20193;-91
2023/10/14 00:42:51;;;;;;;21.63;18.70;;;13.60;93.30;;;;;;5112525;28;20637;-91
2023/10/14 00:45:20;;;;;;;22.33;20.10;;;13.60;93.30;;;;;;5112470;28;20200;-91
2023/10/14 00:47:49;;;;;;;26.70;19.67;;;13.70;93.30;;;;;;5112394;28;20213;-91
2023/10/14 00:52:54;;;;;;;23.20;20.80;;;13.60;93.40;;;;;;5113827;28;20159;-91
2023/10/14 00:55:35;;;;;;;27.80;20.93;;;13.70;93.50;;;;;;5112378;28;20251;-91
2023/10/14 00:58:01;;;;;;;22.55;20.27;;;13.70;93.50;;;;;;5112957;28;20174;-91
2023/10/14 01:00:37;;;;;;;33.80;20.90;;;13.70;93.50;;;;;;5112207;28;20312;-91
2023/10/14 01:03:07;;;;;;;24.77;20.75;;;13.80;93.50;;;;;;5113016;28;20170;-92
2023/10/14 01:05:35;;;;;;;28.20;21.65;;;13.80;93.50;;;;;;5112144;28;20190;-91
2023/10/14 01:08:03;;;;;;;27.10;21.40;;;13.70;93.50;;;;;;5112206;28;20657;-91
2023/10/14 01:10:29;;;;;;;28.02;19.63;;;13.80;93.60;;;;;;5112307;28;20311;-91
2023/10/14 01:12:55;;;;;;;26.02;21.70;;;13.70;93.50;;;;;;5112195;28;20676;-89
2023/10/14 01:15:22;;;;;;;34.88;22.63;;;13.70;93.50;;;;;;5112121;28;20194;-91
2023/10/14 01:17:49;;;;;;;25.40;22.13;;;13.80;93.60;;;;;;5112166;28;20190;-90
2023/10/14 01:22:47;;;;;;;24.17;21.70;;;13.60;93.60;;;;;;5117313;28;20167;-91
2023/10/14 01:25:15;;;;;;;24.00;21.83;;;13.50;93.60;;;;;;5116553;28;20189;-90
2023/10/14 01:27:44;;;;;;;23.67;21.27;;;13.60;93.60;;;;;;5116099;28;20213;-90
2023/10/14 01:30:14;;;;;;;25.07;21.20;;;13.40;93.30;;;;;;5115901;28;20231;-91
2023/10/14 01:32:48;;;;;;;21.90;20.33;;;13.40;93.30;;;;;;5116602;28;20170;-91
2023/10/14 01:35:31;;;;;;;21.57;19.77;;;13.50;93.20;;;;;;5115730;28;20200;-91
2023/10/14 01:38:01;;;;;;;22.47;20.37;;;13.50;93.10;;;;;;5116337;28;20195;-90
2023/10/14 01:43:10;;;;;;;38.57;35.67;;;13.40;93.10;;;;;;5117217;28;20155;-91
2023/10/14 01:45:40;;;;;;;38.33;35.00;;;13.50;93.10;;;;;;5115592;28;20196;-91
2023/10/14 01:50:44;;;;;;;37.70;34.80;;;13.30;92.90;;;;;;5117170;27;20170;-90
2023/10/14 01:53:10;;;;;;;37.07;33.97;;;13.20;92.80;;;;;;5117027;28;20149;-91
2023/10/14 01:55:39;;;;;;;35.57;32.70;;;13.20;92.70;;;;;;5116368;28;20182;-91
2023/10/14 01:58:13;;;;;;;36.67;33.60;;;13.10;92.60;;;;;;5116833;28;20207;-90
2023/10/14 02:00:39;;;;;;;34.43;32.17;;;13.10;92.50;;;;;;5116762;28;20213;-90
2023/10/14 02:03:09;;;;;;;34.53;31.87;;;13.10;92.20;;;;;;5115294;28;20641;-90
2023/10/14 02:05:40;;;;;;;39.90;37.20;;;13.10;92.00;;;;;;5115352;28;20219;-90
2023/10/14 02:08:15;;;;;;;18.30;16.53;;;13.10;92.10;;;;;;5116693;28;20142;-90
2023/10/14 02:10:51;;;;;;;19.40;17.50;;;13.00;92.00;;;;;;5115175;28;20162;-90
2023/10/14 02:13:18;;;;;;;32.63;30.43;;;13.10;92.20;;;;;;5116688;28;20150;-91
2023/10/14 02:15:47;;;;;;;35.60;32.80;;;13.00;92.50;;;;;;5116156;27;20213;-90
2023/10/14 02:18:31;;;;;;;20.03;18.20;;;12.90;92.30;;;;;;5115183;28;20331;-91
2023/10/14 02:20:56;;;;;;;20.37;18.77;;;12.90;92.40;;;;;;5115239;28;20280;-91
2023/10/14 02:23:25;;;;;;;21.37;19.63;;;12.80;92.70;;;;;;5115142;28;20299;-91
2023/10/14 02:25:55;;;;;;;20.30;18.57;;;12.70;93.10;;;;;;5115213;28;20194;-91
2023/10/14 02:28:28;;;;;;;20.47;18.77;;;12.50;92.90;;;;;;5114888;28;20199;-90
2023/10/14 02:30:59;;;;;;;20.30;18.70;;;12.50;93.20;;;;;;5114736;28;20637;-90
2023/10/14 02:33:25;;;;;;;20.40;18.80;;;12.50;93.20;;;;;;5113686;28;20166;-91
2023/10/14 02:35:50;;;;;;;20.63;18.70;;;12.30;93.00;;;;;;5114748;28;20760;-91
2023/10/14 02:38:17;;;;;;;19.40;17.90;;;12.30;93.00;;;;;;5114683;28;20265;-90
2023/10/14 02:40:42;;;;;;;20.27;18.57;;;12.40;93.00;;;;;;5114633;28;20621;-91
2023/10/14 02:43:08;;;;;;;21.63;19.57;;;12.50;93.00;;;;;;5114790;28;20174;-91
2023/10/14 02:45:40;;;;;;;21.10;18.87;;;12.50;92.90;;;;;;5114473;28;20185;-91
2023/10/14 02:48:06;;;;;;;20.27;18.50;;;12.50;92.80;;;;;;5114480;28;20530;-91
2023/10/14 02:50:32;;;;;;;21.00;19.37;;;12.50;92.70;;;;;;5115619;28;20177;-90
2023/10/14 02:53:06;;;;;;;20.70;18.77;;;12.50;92.60;;;;;;5114388;28;20205;-90
2023/10/14 02:55:50;;;;;;;20.40;18.47;;;12.50;92.50;;;;;;5114806;28;20198;-91
2023/10/14 02:58:21;;;;;;;20.60;18.87;;;12.50;92.40;;;;;;5114346;28;20637;-91
2023/10/14 03:00:49;;;;;;;20.70;18.40;;;12.50;92.30;;;;;;5114134;28;20194;-91
2023/10/14 03:03:15;;;;;;;24.77;20.50;;;12.50;92.30;;;;;;5114147;28;20174;-91
2023/10/14 03:05:53;;;;;;;21.20;18.70;;;12.50;92.10;;;;;;5115303;28;20204;-91
2023/10/14 03:08:20;;;;;;;20.90;19.00;;;12.40;91.70;;;;;;5114160;28;20162;-90
2023/10/14 03:10:53;;;;;;;22.03;19.87;;;12.40;91.70;;;;;;5113997;28;20178;-90
2023/10/14 03:13:19;;;;;;;23.03;19.90;;;12.40;91.70;;;;;;5113986;28;20166;-91
2023/10/14 03:15:44;;;;;;;25.50;20.97;;;12.40;91.70;;;;;;5113813;28;20190;-91
2023/10/14 03:18:17;;;;;;;21.37;19.17;;;12.30;91.60;;;;;;5114129;28;20310;-90
2023/10/14 03:20:58;;;;;;;23.97;19.30;;;12.20;91.80;;;;;;5116606;28;20186;-89
2023/10/14 03:23:24;;;;;;;19.63;17.67;;;12.20;91.80;;;;;;5113937;28;20629;-91
2023/10/14 03:25:51;;;;;;;18.90;17.30;;;12.20;91.90;;;;;;5113642;28;20193;-90
2023/10/14 03:28:19;;;;;;;20.60;17.80;;;12.10;91.90;;;;;;5113609;28;20750;-90
2023/10/14 03:30:55;;;;;;;20.50;17.50;;;12.00;92.10;;;;;;5114772;28;20193;-90
2023/10/14 03:33:22;;;;;;;20.73;17.00;;;12.00;92.30;;;;;;5113580;28;20234;-90
2023/10/14 03:36:00;;;;;;;19.43;17.60;;;12.00;92.30;;;;;;5113260;28;20200;-90
2023/10/14 03:38:39;;;;;;;20.93;17.03;;;11.90;92.30;;;;;;5113442;28;20170;-89
2023/10/14 03:41:18;;;;;;;25.73;17.50;;;11.90;92.50;;;;;;5114566;28;20231;-90
2023/10/14 03:43:58;;;;;;;19.60;17.70;;;11.90;92.50;;;;;;5113052;28;20583;-88
2023/10/14 03:46:35;;;;;;;32.47;30.03;;;11.90;92.40;;;;;;5113837;28;20252;-90
2023/10/14 03:49:06;;;;;;;31.17;28.53;;;11.80;92.50;;;;;;5115049;28;20158;-90
2023/10/14 03:51:32;;;;;;;33.27;30.93;;;11.90;92.60;;;;;;5114460;28;20523;-90
2023/10/14 03:54:07;;;;;;;33.23;30.13;;;11.80;92.60;;;;;;5113050;28;20174;-91
2023/10/14 03:56:34;;;;;;;33.30;30.13;;;11.80;92.70;;;;;;5114186;28;20185;-90
2023/10/14 03:59:01;;;;;;;35.57;31.23;;;11.80;92.80;;;;;;5114354;28;20649;-90
2023/10/14 04:01:43;;;;;;;35.83;32.53;;;11.80;92.90;;;;;;5113012;28;20200;-90
2023/10/14 04:04:19;;;;;;;33.87;31.10;;;11.70;92.90;;;;;;5113011;28;20591;-90
2023/10/14 04:10:06;;;;;;;33.07;29.97;;;11.80;92.80;;;;;;5114479;28;20250;-90
2023/10/14 04:12:53;;;;;;;38.10;35.10;;;11.80;92.80;;;;;;5113884;28;20261;-89
2023/10/14 04:17:40;;;;;;;18.67;16.80;;;11.70;92.60;;;;;;5114710;28;20161;-91
2023/10/14 04:25:19;;;;;;;37.30;33.93;;;11.70;92.40;;;;;;5114141;28;20653;-89
2023/10/14 04:30:21;;;;;;;24.53;19.00;;;11.70;92.00;;;;;;5113914;28;20157;-90
2023/10/14 04:35:23;;;;;;;32.33;29.40;;;11.70;91.60;;;;;;5114278;28;20186;-89
2023/10/14 04:37:52;;;;;;;22.50;17.07;;;11.70;91.10;;;;;;5113896;28;20166;-90
2023/10/14 04:40:35;;;;;;;18.17;16.27;;;11.70;90.90;;;;;;5112619;28;20190;-90
2023/10/14 04:43:13;;;;;;;19.77;17.40;;;11.60;90.40;;;;;;5113702;28;20147;-91
2023/10/14 04:45:52;;;;;;;23.37;18.33;;;11.60;89.80;;;;;;5112525;28;20235;-90
2023/10/14 04:48:20;;;;;;;27.47;17.90;;;11.60;88.60;;;;;;5113955;28;20158;-90
2023/10/14 04:50:46;;;;;;;21.03;17.50;;;11.60;87.90;;;;;;5112402;28;20234;-90
2023/10/14 04:53:13;;;;;;;25.23;18.77;;;11.70;88.10;;;;;;5113670;28;20249;-91
2023/10/14 04:55:45;;;;;;;23.83;18.77;;;11.70;87.40;;;;;;5112526;28;20197;-87
2023/10/14 05:00:45;;;;;;;26.37;16.70;;;11.70;87.50;;;;;;5117964;28;20194;-90
2023/10/14 05:03:14;;;;;;;20.97;18.27;;;11.70;87.90;;;;;;5116586;28;20173;-90
2023/10/14 05:05:46;;;;;;;27.43;18.40;;;11.60;87.90;;;;;;5116359;28;20198;-90
2023/10/14 05:08:15;;;;;;;19.53;17.63;;;11.50;88.50;;;;;;5117472;28;20174;-89
2023/10/14 05:10:44;;;;;;;18.73;17.00;;;11.40;87.90;;;;;;5116391;28;20174;-88
2023/10/14 05:13:10;;;;;;;19.33;16.47;;;11.40;87.90;;;;;;5116379;28;20256;-90
2023/10/14 05:15:42;;;;;;;20.43;16.10;;;11.40;87.90;;;;;;5117399;28;20282;-90
2023/10/14 05:18:16;;;;;;;20.13;17.13;;;11.30;87.70;;;;;;5117457;28;20541;-90
2023/10/14 05:20:56;;;;;;;18.50;16.23;;;11.40;87.50;;;;;;5116448;28;20676;-90
2023/10/14 05:23:24;;;;;;;20.50;17.63;;;11.40;87.80;;;;;;5116064;28;20166;-89
2023/10/14 05:25:56;;;;;;;19.37;16.70;;;11.30;88.20;;;;;;5117081;28;20193;-89
2023/10/14 05:28:35;;;;;;;22.37;16.67;;;11.40;88.60;;;;;;5116217;28;20170;-90
2023/10/14 05:31:05;;;;;;;21.23;16.23;;;11.40;89.30;;;;;;5116151;28;20162;-90
2023/10/14 05:33:31;;;;;;;24.73;16.20;;;11.40;89.60;;;;;;5115980;28;20194;-90
2023/10/14 05:35:57;;;;;;;19.00;16.30;;;11.40;89.50;;;;;;5115641;28;20197;-88
2023/10/14 05:38:23;;;;;;;21.50;16.17;;;11.40;89.70;;;;;;5116998;28;20162;-90
2023/10/14 05:40:55;;;;;;;17.27;15.67;;;11.40;89.90;;;;;;5115740;28;20198;-90
2023/10/14 05:43:24;;;;;;;24.90;16.53;;;11.30;89.90;;;;;;5115821;28;20252;-90
2023/10/14 05:45:53;;;;;;;20.30;17.10;;;11.30;89.80;;;;;;5117097;28;20182;-90
2023/10/14 05:48:30;;;;;;;20.90;17.57;;;11.20;89.70;;;;;;5115747;28;20174;-91
2023/10/14 05:50:57;;;;;;;23.20;17.40;;;11.20;89.60;;;;;;5115599;28;20248;-90
2023/10/14 05:53:26;;;;;;;20.43;18.30;;;11.20;89.20;;;;;;5115749;28;20231;-90
2023/10/14 05:56:14;;;;;;;33.07;29.93;;;11.30;89.00;;;;;;5115281;28;20552;-91
2023/10/14 05:58:45;;;;;;;32.33;29.33;;;11.30;89.10;;;;;;5115426;28;20720;-89
2023/10/14 06:01:13;;;;;;;31.53;28.63;;;11.20;89.00;;;;;;5115366;28;20614;-90
2023/10/14 06:03:43;;;;;;;30.40;27.47;;;11.20;89.00;;;;;;5115598;28;20170;-91
2023/10/14 06:06:09;;;;;;;32.50;25.37;;;11.20;89.10;;;;;;5115297;28;20277;-90
2023/10/14 06:08:39;;;;;;;30.23;27.67;;;11.20;88.90;;;;;;5115088;28;20285;-90
2023/10/14 06:11:05;;;;;;;30.97;28.53;;;11.20;88.10;;;;;;5115733;28;20181;-90
2023/10/14 06:13:32;;;;;;;29.97;27.57;;;11.20;87.90;;;;;;5115170;28;20177;-89
2023/10/14 06:16:00;;;;;;;29.83;26.57;;;11.30;88.10;;;;;;5116258;28;20194;-90
2023/10/14 06:18:29;;;;;;;29.57;26.60;;;11.30;88.00;;;;;;5116275;28;20166;-90
2023/10/14 06:20:55;;;;;;;26.10;23.93;;;11.30;88.50;;;;;;5114920;28;20235;-89
2023/10/14 06:23:20;;;;;;;36.37;28.87;;;11.30;88.80;;;;;;5116371;28;20668;-90
2023/10/14 06:25:46;;;;;;;25.23;16.07;;;11.40;89.00;;;;;;5115010;28;20193;-89
2023/10/14 06:28:11;;;;;;;21.63;16.03;;;11.40;88.60;;;;;;5116323;27;20261;-90
2023/10/14 06:30:37;;;;;;;29.03;24.37;;;11.40;88.80;;;;;;5115119;28;20173;-90
2023/10/14 06:33:03;;;;;;;26.77;24.23;;;11.30;88.30;;;;;;5114765;28;20257;-90
2023/10/14 06:35:33;;;;;;;27.30;24.87;;;11.30;88.20;;;;;;5115790;28;20198;-90
2023/10/14 06:37:59;;;;;;;21.57;17.10;;;11.30;88.40;;;;;;5116168;28;20178;-91
2023/10/14 06:40:32;;;;;;;22.63;18.13;;;11.30;88.40;;;;;;5114931;28;20205;-91
2023/10/14 06:43:00;;;;;;;27.37;24.53;;;11.20;88.00;;;;;;5115783;28;20625;-90
2023/10/14 06:45:31;;;;;;;27.07;24.27;;;11.10;88.20;;;;;;5114630;28;20200;-90
2023/10/14 06:47:57;;;;;;;30.63;21.77;;;11.10;88.30;;;;;;5115225;28;20162;-93
2023/10/14 06:50:26;;;;;;;19.40;16.77;;;11.20;88.40;;;;;;5115646;28;20280;-91
2023/10/14 06:52:58;;;;;;;20.37;15.17;;;11.30;88.80;;;;;;5115047;28;20181;-91
2023/10/14 06:55:26;;;;;;;21.07;16.93;;;11.40;89.00;;;;;;5115473;28;20688;-90
2023/10/14 06:57:53;;;;;;;21.27;15.40;;;11.40;89.20;;;;;;5114204;28;20218;-90
2023/10/14 07:00:29;;;;;;;20.07;16.17;;;11.30;89.70;;;;;;5114470;28;20205;-90
2023/10/14 07:02:57;;;;;;;20.87;16.00;;;11.20;89.90;;;;;;5114284;28;20625;-89
2023/10/14 07:05:23;;;;;;;20.80;16.77;;;11.10;90.20;;;;;;5115278;28;20186;-91
2023/10/14 07:07:49;;;;;;;21.27;16.33;;;11.00;90.00;;;;;;5114165;28;20174;-89
2023/10/14 07:10:15;;;;;;;18.93;15.37;;;11.10;90.00;;;;;;5114047;28;20668;-90
2023/10/14 07:12:41;;;;;;;21.87;16.30;;;11.20;89.60;;;;;;5114056;28;20169;-89
2023/10/14 07:15:12;;;;;;;24.60;15.93;;;11.20;89.10;;;;;;5115135;28;20193;-89
2023/10/14 07:17:40;;;;;;;17.93;16.13;;;11.20;89.30;;;;;;5113808;28;20170;-89
2023/10/14 07:20:07;;;;;;;22.30;16.80;;;11.20;88.80;;;;;;5114983;28;20277;-91
2023/10/14 07:22:32;;;;;;;22.80;15.87;;;11.30;89.10;;;;;;5114875;28;20223;-91
2023/10/14 07:24:58;;;;;;;19.40;17.20;;;11.30;89.10;;;;;;5114949;28;20194;-90
2023/10/14 07:27:24;;;;;;;20.77;16.23;;;11.30;89.30;;;;;;5113853;28;20654;-90
2023/10/14 07:29:49;;;;;;;25.67;15.93;;;11.30;88.80;;;;;;5113714;28;20174;-91
2023/10/14 07:32:15;;;;;;;28.93;16.77;;;11.30;88.70;;;;;;5113873;28;20177;-90
2023/10/14 07:34:42;;;;;;;20.77;16.50;;;11.40;88.50;;;;;;5113501;28;20197;-90
2023/10/14 07:37:09;;;;;;;21.67;17.67;;;11.40;88.30;;;;;;5113781;28;20185;-90
2023/10/14 07:39:35;;;;;;;19.57;17.47;;;11.50;88.60;;;;;;5113574;28;20648;-90
2023/10/14 07:42:09;;;;;;;31.73;17.33;;;11.60;88.60;;;;;;5113598;28;20310;-90
2023/10/14 07:44:35;;;;;;;21.97;17.10;;;11.60;88.40;;;;;;5113773;28;20196;-90
2023/10/14 07:47:05;;;;;;;30.37;17.90;;;11.60;88.20;;;;;;5114664;28;20249;-91
2023/10/14 07:49:35;;;;;;;20.67;17.27;;;11.70;87.90;;;;;;5113317;28;20177;-91
2023/10/14 07:52:00;;;;;;;25.90;16.37;;;11.80;87.80;;;;;;5113322;28;20615;-91
2023/10/14 07:54:31;;;;;;;24.07;16.33;;;12.00;87.40;;;;;;5114676;28;20225;-90
2023/10/14 07:56:56;;;;;;;18.63;16.37;;;12.10;87.40;;;;;;5113605;28;20196;-90
2023/10/14 07:59:23;;;;;;;21.80;17.70;;;12.30;87.60;;;;;;5114432;28;20217;-91
2023/10/14 08:01:48;;;;;;;22.80;17.87;;;12.30;86.40;;;;;;5113147;28;20201;-91
2023/10/14 08:04:14;;;;;;;30.13;19.57;;;12.20;85.20;;;;;;5113318;28;20556;-92
2023/10/14 08:06:41;;;;;;;28.50;25.73;;;12.30;85.60;;;;;;5113342;28;20170;-91
2023/10/14 08:09:23;;;;;;;32.70;29.43;;;12.30;86.40;;;;;;5113856;28;20252;-92
2023/10/14 08:11:50;;;;;;;35.87;32.73;;;11.60;85.60;;;;;;5113312;28;20166;-90
2023/10/14 08:14:15;;;;;;;31.70;28.87;;;11.40;86.80;;;;;;5114156;28;20242;-92
2023/10/14 08:16:41;;;;;;;29.90;27.53;;;11.30;87.90;;;;;;5113671;28;20248;-91
2023/10/14 08:19:10;;;;;;;34.00;30.70;;;11.40;87.60;;;;;;5113466;28;20221;-91
2023/10/14 08:21:36;;;;;;;31.30;28.60;;;11.40;86.60;;;;;;5114499;28;20205;-91
2023/10/14 08:24:05;;;;;;;18.87;16.90;;;11.50;87.50;;;;;;5114469;28;20655;-89
2023/10/14 08:26:36;;;;;;;18.10;16.47;;;11.70;87.50;;;;;;5113110;28;20174;-90
2023/10/14 08:29:02;;;;;;;28.83;26.10;;;11.90;87.20;;;;;;5112704;28;20169;-90
2023/10/14 08:31:32;;;;;;;29.67;26.57;;;11.90;86.80;;;;;;5111904;28;20185;-90
2023/10/14 08:33:58;;;;;;;28.33;25.50;;;12.00;86.90;;;;;;5112745;28;20166;-90
2023/10/14 08:36:26;;;;;;;20.07;16.97;;;12.10;86.70;;;;;;5114884;28;20198;-90
2023/10/14 08:38:52;;;;;;;19.17;17.33;;;12.10;86.30;;;;;;5113608;28;20219;-90
2023/10/14 08:41:17;;;;;;;30.43;26.50;;;12.10;85.30;;;;;;5112452;28;20193;-90
2023/10/14 08:43:49;;;;;;;31.67;28.97;;;12.30;85.70;;;;;;5113756;28;20174;-88
2023/10/14 08:46:23;;;;;;;31.57;28.97;;;12.30;84.50;;;;;;5112534;28;20193;-89
2023/10/14 08:48:51;;;;;;;29.60;17.70;;;12.40;85.80;;;;;;5113940;28;20197;-88
2023/10/14 08:51:17;;;;;;;19.07;17.27;;;12.60;86.40;;;;;;5112524;28;20219;-89
2023/10/14 08:53:46;;;;;;;31.33;28.30;;;12.60;85.40;;;;;;5112398;28;20182;-89
2023/10/14 08:56:12;;;;;;;33.57;29.83;;;12.70;85.40;;;;;;5112584;28;20210;-89
2023/10/14 08:58:39;;;;;;;34.10;31.10;;;12.80;84.80;;;;;;5112313;28;20553;-89
2023/10/14 09:01:11;;;;;;;22.73;18.47;;;13.00;84.20;;;;;;5114137;28;20595;-89
2023/10/14 09:03:38;;;;;;;28.20;19.63;;;13.00;83.00;;;;;;5113482;28;20166;-89
2023/10/14 09:06:06;;;;;;;31.00;23.87;;;13.00;82.80;;;;;;5114530;28;20228;-90
2023/10/14 09:08:33;;;;;;;28.73;25.60;;;13.10;82.80;;;;;;5113761;28;20158;-90
2023/10/14 09:10:58;;;;;;;30.40;21.10;;;13.20;81.00;;;;;;5112237;28;20174;-89
2023/10/14 09:13:25;;;;;;;27.43;19.60;;;13.20;81.00;;;;;;5112162;28;20174;-89
2023/10/14 09:15:51;;;;;;;21.00;18.80;;;13.00;81.40;;;;;;5113142;28;20289;-90
2023/10/14 09:18:19;;;;;;;19.70;18.00;;;13.00;81.00;;;;;;5113501;28;20199;-89
2023/10/14 09:20:53;;;;;;;20.90;19.00;;;13.00;80.00;;;;;;5113315;28;20286;-89
2023/10/14 09:23:27;;;;;;;21.07;19.07;;;13.10;81.30;;;;;;5112250;28;20625;-89
2023/10/14 09:25:55;;;;;;;23.07;19.40;;;13.10;80.50;;;;;;5112150;28;20193;-91
2023/10/14 09:28:23;;;;;;;26.47;20.30;;;13.30;80.90;;;;;;5112420;28;20705;-91
2023/10/14 09:30:50;;;;;;;21.63;19.63;;;13.40;80.60;;;;;;5112666;28;20554;-91
2023/10/14 09:33:27;;;;;;;22.47;18.70;;;13.40;80.10;;;;;;5112100;28;20181;-90
2023/10/14 09:35:58;;;;;;;21.00;19.10;;;13.40;79.70;;;;;;5111859;28;20204;-90
2023/10/14 09:38:25;;;;;;;22.00;19.90;;;13.40;80.10;;;;;;5112268;28;20170;-91
2023/10/14 09:40:57;;;;;;;26.70;18.73;;;13.30;79.80;;;;;;5111932;28;20190;-90
2023/10/14 09:43:23;;;;;;;23.67;17.37;;;13.40;82.30;;;;;;5115560;28;20201;-92
2023/10/14 09:45:55;;;;;;;20.80;18.73;;;13.30;83.80;;;;;;5118628;28;20186;-91
2023/10/14 09:48:31;;;;;;;19.27;17.40;;;11.00;82.10;;;;;;5118348;28;20170;-91
2023/10/14 09:51:02;;;;;;;18.27;16.70;;;9.90;84.60;;;;;;5116871;28;20264;-92
2023/10/14 09:53:32;;;;;;;16.43;14.97;;;9.00;87.80;;;;;;5116144;28;20178;-90
2023/10/14 09:56:04;;;;;;;15.43;14.10;;;9.10;88.70;;;;;;5116151;28;20237;-91
2023/10/14 09:58:30;;;;;;;15.30;13.70;;;9.30;88.20;;;;;;5117238;28;20219;-92
2023/10/14 10:00:59;;;;;;;14.53;13.13;;;9.50;88.30;;;;;;5117211;28;20190;-91
2023/10/14 10:03:27;;;;;;;15.27;13.40;;;9.60;87.70;;;;;;5118325;28;20170;-92
2023/10/14 10:06:16;;;;;;;14.17;13.03;;;9.60;87.80;;;;;;5119245;28;20201;-91
2023/10/14 10:09:20;;;;;;;15.77;14.37;;;9.70;87.60;;;;;;5119391;28;20163;-92
2023/10/14 10:11:50;;;;;;;14.50;13.40;;;9.60;87.00;;;;;;5118036;28;20165;-92
2023/10/14 10:14:26;;;;;;;14.60;13.47;;;9.90;87.50;;;;;;5116421;28;20193;-92
2023/10/14 10:16:53;;;;;;;13.83;12.83;;;10.40;88.00;;;;;;5115813;28;20233;-92
2023/10/14 10:19:21;;;;;;;14.80;13.40;;;10.80;88.00;;;;;;5116051;28;20214;-92
2023/10/14 10:22:12;;;;;;;14.20;13.23;;;11.00;87.40;;;;;;5115318;28;20780;-92
2023/10/14 10:24:41;;;;;;;13.60;12.60;;;11.30;86.90;;;;;;5115195;28;20190;-91
2023/10/14 10:27:10;;;;;;;17.07;15.50;;;11.70;87.00;;;;;;5116156;27;20170;-92
2023/10/14 10:29:55;;;;;;;17.47;15.83;;;11.70;85.60;;;;;;5116205;28;20169;-90
2023/10/14 10:32:22;;;;;;;19.53;17.83;;;11.90;84.60;;;;;;5115648;28;20170;-91
2023/10/14 10:35:06;;;;;;;21.90;19.83;;;11.80;83.40;;;;;;5114831;28;20221;-93
2023/10/14 10:37:54;;;;;;;20.60;18.80;;;11.90;82.20;;;;;;5118807;28;20170;-90
2023/10/14 10:40:27;;;;;;;20.17;18.47;;;11.90;81.40;;;;;;5115964;28;20203;-91
2023/10/14 10:42:54;;;;;;;20.13;18.43;;;12.10;82.10;;;;;;5116262;28;20626;-92
2023/10/14 10:45:29;;;;;;;22.23;20.20;;;12.10;82.20;;;;;;5114889;28;20231;-92
2023/10/14 10:47:58;;;;;;;34.10;31.10;;;12.00;81.10;;;;;;5114707;28;20244;-90
2023/10/14 10:50:41;;;;;;;33.43;30.93;;;12.20;81.10;;;;;;5118139;28;20174;-91
2023/10/14 10:53:07;;;;;;;31.43;29.20;;;12.20;81.40;;;;;;5115828;28;20155;-90
2023/10/14 10:55:36;;;;;;;32.00;29.43;;;12.20;82.10;;;;;;5113778;28;20246;-89
2023/10/14 10:58:03;;;;;;;32.27;29.53;;;12.40;83.70;;;;;;5115219;28;20562;-92
2023/10/14 11:00:30;;;;;;;31.87;29.33;;;12.40;83.50;;;;;;5118264;28;20193;-92
2023/10/14 11:03:00;;;;;;;32.73;29.80;;;12.50;84.40;;;;;;5116498;28;20173;-90
2023/10/14 11:05:26;;;;;;;32.13;29.97;;;12.10;82.00;;;;;;5115467;28;20186;-89
2023/10/14 11:07:53;;;;;;;33.60;31.00;;;11.40;81.60;;;;;;5114607;28;20201;-89
2023/10/14 11:10:26;;;;;;;32.43;29.63;;;11.20;81.40;;;;;;5116045;28;20637;-89
2023/10/14 11:12:54;;;;;;;34.73;32.00;;;11.50;83.20;;;;;;5115558;28;20178;-89
2023/10/14 11:15:21;;;;;;;20.73;18.53;;;11.30;83.80;;;;;;5115919;28;20190;-90
2023/10/14 11:17:56;;;;;;;18.93;16.87;;;11.20;83.70;;;;;;5115072;28;20178;-90
2023/10/14 11:20:24;;;;;;;30.83;28.30;;;11.10;83.80;;;;;;5114050;28;20195;-89
2023/10/14 11:22:50;;;;;;;28.27;26.10;;;10.90;81.20;;;;;;5115654;28;20169;-91
2023/10/14 11:25:18;;;;;;;29.13;26.90;;;10.90;82.10;;;;;;5114663;28;20194;-91
2023/10/14 11:27:45;;;;;;;19.47;17.40;;;11.00;83.40;;;;;;5114098;28;20177;-90
2023/10/14 11:30:12;;;;;;;18.23;16.63;;;11.10;83.70;;;;;;5114147;28;20174;-91
2023/10/14 11:32:58;;;;;;;18.90;17.20;;;11.10;84.50;;;;;;5114281;28;20170;-93
2023/10/14 11:35:28;;;;;;;15.63;13.93;;;11.50;85.40;;;;;;5114892;28;20202;-93
2023/10/14 11:38:00;;;;;;;16.87;15.27;;;11.80;85.50;;;;;;5115784;28;20182;-88
2023/10/14 11:40:40;;;;;;;19.33;16.73;;;12.20;85.30;;;;;;5113871;28;20216;-89
2023/10/14 11:43:07;;;;;;;16.63;15.07;;;12.20;83.90;;;;;;5115038;28;20169;-91
2023/10/14 11:45:35;;;;;;;18.80;17.10;;;12.30;83.50;;;;;;5114578;28;20194;-91
2023/10/14 11:48:01;;;;;;;19.27;17.37;;;12.40;84.10;;;;;;5114503;28;20193;-91
2023/10/14 11:50:30;;;;;;;19.07;17.37;;;12.50;84.00;;;;;;5116142;28;20174;-93
2023/10/14 11:52:57;;;;;;;19.13;17.33;;;12.40;83.00;;;;;;5123603;28;20178;-93
2023/10/14 11:55:25;;;;;;;35.73;18.33;;;12.60;82.30;;;;;;5117500;28;20190;-91
2023/10/14 11:57:53;;;;;;;19.73;17.90;;;12.70;81.40;;;;;;5116364;28;20657;-92
2023/10/14 12:00:20;;;;;;;27.37;24.87;;;12.80;81.40;;;;;;5118210;28;20194;-90
2023/10/14 12:02:50;;;;;;;27.67;25.10;;;12.90;81.20;;;;;;5117611;28;20180;-93
2023/10/14 12:05:16;;;;;;;38.97;35.67;;;12.90;80.40;;;;;;5117051;28;20197;-92
2023/10/14 12:07:47;;;;;;;29.70;21.83;;;12.90;79.10;;;;;;5119378;28;20592;-93
2023/10/14 12:10:13;;;;;;;35.77;32.60;;;13.10;79.70;;;;;;5119439;28;20188;-91
2023/10/14 12:12:39;;;;;;;26.67;22.43;;;13.20;80.00;;;;;;5118077;28;20177;-91
2023/10/14 12:15:06;;;;;;;21.67;19.53;;;13.20;79.30;;;;;;5117808;28;20225;-91
2023/10/14 12:17:38;;;;;;;23.10;20.10;;;13.30;79.00;;;;;;5119528;28;20182;-91
2023/10/14 12:20:06;;;;;;;21.87;19.53;;;13.30;78.80;;;;;;5119129;28;20649;-92
2023/10/14 12:22:32;;;;;;;22.57;20.53;;;13.40;79.00;;;;;;5120562;28;20163;-91
2023/10/14 12:24:58;;;;;;;23.03;20.67;;;13.80;79.70;;;;;;5118887;28;20190;-91
2023/10/14 12:27:25;;;;;;;20.87;18.70;;;13.90;78.80;;;;;;5119401;28;20540;-90
2023/10/14 12:29:52;;;;;;;24.73;22.67;;;14.20;79.70;;;;;;5116238;28;20170;-91
2023/10/14 12:32:18;;;;;;;24.97;22.90;;;13.80;75.90;;;;;;5116061;28;20170;-91
2023/10/14 12:34:46;;;;;;;33.13;30.17;;;12.40;77.50;;;;;;5116600;28;20194;-90
2023/10/14 12:37:19;;;;;;;23.47;21.40;;;12.10;77.30;;;;;;5118391;28;20261;-91
2023/10/14 12:40:04;;;;;;;32.00;28.93;;;12.10;78.70;;;;;;5120338;28;20177;-91
2023/10/14 12:42:45;;;;;;;35.03;32.10;;;11.80;78.30;;;;;;5118274;28;20142;-90
2023/10/14 12:45:13;;;;;;;40.80;37.37;;;11.50;78.50;;;;;;5117213;28;20239;-91
2023/10/14 12:47:48;;;;;;;31.90;29.27;;;11.60;79.50;;;;;;5116683;28;20589;-91
2023/10/14 12:50:15;;;;;;;21.23;19.17;;;11.40;78.90;;;;;;5118804;28;20162;-90
2023/10/14 12:52:45;;;;;;;21.20;19.07;;;11.50;80.80;;;;;;5116346;28;20178;-91
2023/10/14 12:55:19;;;;;;;27.70;24.87;;;11.60;80.70;;;;;;5117280;28;20283;-92
2023/10/14 12:57:44;;;;;;;31.70;23.13;;;11.70;80.30;;;;;;5116305;28;20668;-90
2023/10/14 13:00:18;;;;;;;34.23;30.80;;;12.20;80.10;;;;;;5117260;28;20221;-90
2023/10/14 13:02:45;;;;;;;23.80;21.27;;;12.50;79.40;;;;;;5117762;28;20170;-91
2023/10/14 13:05:14;;;;;;;29.53;26.03;;;12.30;77.70;;;;;;5115868;28;20669;-91
2023/10/14 13:07:40;;;;;;;26.97;24.30;;;12.20;78.40;;;;;;5117908;28;20175;-90
2023/10/14 13:10:08;;;;;;;24.63;21.73;;;12.30;79.70;;;;;;5119444;28;20177;-91
2023/10/14 13:12:35;;;;;;;32.93;22.83;;;12.30;79.70;;;;;;5119634;28;20555;-91